sensor_id;sensor_type;location;lat;lon;timestamp;P1;durP1;ratioP1;P2;durP2;ratioP2
49221;SDS011;35047;37.588;-122.048;2022-12-18T00:01:23;2.20;;;1.95;;
49221;SDS011;35047;37.588;-122.048;2022-12-18T00:03:52;4.63;;;1.80;;
49221;SDS011;35047;37.588;-122.048;2022-12-18T00:06:20;3.95;;;1.52;;
49221;SDS011;35047;37.588;-122.048;2022-12-18T00:08:48;1.20;;;1.05;;
49221;SDS011;35047;37.588;-122.048;2022-12-18T00:13:43;1.00;;;0.90;;
49221;SDS011;35047;37.588;-122.048;2022-12-18T00:16:15;2.60;;;0.90;;
49221;SDS011;35047;37.588;-122.048;2022-12-18T00:18:45;1.15;;;0.95;;
49221;SDS011;35047;37.588;-122.048;2022-12-18T00:21:17;2.08;;;1.10;;
49221;SDS011;35047;37.588;-122.048;2022-12-18T00:26:12;1.90;;;1.10;;
49221;SDS011;35047;37.588;-122.048;2022-12-18T00:28:43;2.42;;;1.33;;
49221;SDS011;35047;37.588;-122.048;2022-12-18T00:31:12;3.10;;;0.95;;
49221;SDS011;35047;37.588;-122.048;2022-12-18T00:33:41;1.33;;;0.88;;
49221;SDS011;35047;37.588;-122.048;2022-12-18T00:36:11;2.17;;;0.98;;
49221;SDS011;35047;37.588;-122.048;2022-12-18T00:38:40;1.52;;;1.05;;
49221;SDS011;35047;37.588;-122.048;2022-12-18T00:41:08;1.58;;;0.60;;
49221;SDS011;35047;37.588;-122.048;2022-12-18T00:43:35;1.80;;;1.05;;
49221;SDS011;35047;37.588;-122.048;2022-12-18T00:46:03;1.77;;;1.00;;
49221;SDS011;35047;37.588;-122.048;2022-12-18T00:48:31;2.10;;;1.40;;
49221;SDS011;35047;37.588;-122.048;2022-12-18T00:50:57;1.40;;;0.80;;
49221;SDS011;35047;37.588;-122.048;2022-12-18T00:55:53;1.88;;;0.75;;
49221;SDS011;35047;37.588;-122.048;2022-12-18T00:58:19;1.52;;;0.80;;
49221;SDS011;35047;37.588;-122.048;2022-12-18T01:00:46;1.73;;;0.85;;
49221;SDS011;35047;37.588;-122.048;2022-12-18T01:03:13;3.03;;;1.10;;
49221;SDS011;35047;37.588;-122.048;2022-12-18T01:05:40;9.32;;;0.70;;
49221;SDS011;35047;37.588;-122.048;2022-12-18T01:08:08;1.52;;;0.80;;
49221;SDS011;35047;37.588;-122.048;2022-12-18T01:10:35;2.42;;;0.98;;
49221;SDS011;35047;37.588;-122.048;2022-12-18T01:13:03;1.15;;;0.82;;
49221;SDS011;35047;37.588;-122.048;2022-12-18T01:15:29;1.85;;;1.13;;
49221;SDS011;35047;37.588;-122.048;2022-12-18T01:17:56;4.90;;;0.75;;
49221;SDS011;35047;37.588;-122.048;2022-12-18T01:20:23;2.63;;;1.00;;
49221;SDS011;35047;37.588;-122.048;2022-12-18T01:22:50;0.88;;;0.68;;
49221;SDS011;35047;37.588;-122.048;2022-12-18T01:27:43;1.08;;;0.80;;
49221;SDS011;35047;37.588;-122.048;2022-12-18T01:30:10;1.00;;;0.90;;
49221;SDS011;35047;37.588;-122.048;2022-12-18T01:32:37;2.72;;;1.55;;
49221;SDS011;35047;37.588;-122.048;2022-12-18T01:35:04;1.27;;;1.10;;
49221;SDS011;35047;37.588;-122.048;2022-12-18T01:37:31;1.45;;;0.93;;
49221;SDS011;35047;37.588;-122.048;2022-12-18T01:39:57;3.50;;;1.07;;
49221;SDS011;35047;37.588;-122.048;2022-12-18T01:42:25;3.00;;;1.48;;
49221;SDS011;35047;37.588;-122.048;2022-12-18T01:49:56;5.43;;;1.55;;
49221;SDS011;35047;37.588;-122.048;2022-12-18T01:52:24;2.65;;;0.95;;
49221;SDS011;35047;37.588;-122.048;2022-12-18T01:54:54;2.08;;;1.10;;
49221;SDS011;35047;37.588;-122.048;2022-12-18T01:57:23;1.85;;;0.80;;
49221;SDS011;35047;37.588;-122.048;2022-12-18T01:59:52;2.60;;;1.08;;
49221;SDS011;35047;37.588;-122.048;2022-12-18T02:02:22;6.10;;;1.40;;
49221;SDS011;35047;37.588;-122.048;2022-12-18T02:04:48;2.23;;;1.07;;
49221;SDS011;35047;37.588;-122.048;2022-12-18T02:13:31;3.03;;;1.65;;
49221;SDS011;35047;37.588;-122.048;2022-12-18T02:18:50;1.77;;;1.10;;
49221;SDS011;35047;37.588;-122.048;2022-12-18T02:27:02;4.07;;;1.95;;
49221;SDS011;35047;37.588;-122.048;2022-12-18T02:29:41;3.70;;;2.67;;
49221;SDS011;35047;37.588;-122.048;2022-12-18T02:32:15;5.47;;;2.25;;
49221;SDS011;35047;37.588;-122.048;2022-12-18T02:34:53;3.17;;;1.77;;
49221;SDS011;35047;37.588;-122.048;2022-12-18T02:37:22;8.88;;;1.95;;
49221;SDS011;35047;37.588;-122.048;2022-12-18T02:39:53;3.33;;;2.80;;
49221;SDS011;35047;37.588;-122.048;2022-12-18T02:42:22;4.70;;;2.90;;
49221;SDS011;35047;37.588;-122.048;2022-12-18T02:44:50;4.05;;;1.77;;
49221;SDS011;35047;37.588;-122.048;2022-12-18T02:47:18;4.80;;;2.58;;
49221;SDS011;35047;37.588;-122.048;2022-12-18T02:54:59;3.65;;;2.42;;
49221;SDS011;35047;37.588;-122.048;2022-12-18T03:00:37;2.78;;;1.92;;
49221;SDS011;35047;37.588;-122.048;2022-12-18T03:03:51;4.50;;;2.28;;
49221;SDS011;35047;37.588;-122.048;2022-12-18T03:06:06;3.47;;;2.25;;
49221;SDS011;35047;37.588;-122.048;2022-12-18T03:08:42;6.30;;;2.58;;
49221;SDS011;35047;37.588;-122.048;2022-12-18T03:11:13;8.35;;;2.38;;
49221;SDS011;35047;37.588;-122.048;2022-12-18T03:14:01;3.85;;;2.85;;
49221;SDS011;35047;37.588;-122.048;2022-12-18T03:16:31;4.82;;;2.90;;
49221;SDS011;35047;37.588;-122.048;2022-12-18T03:19:14;4.95;;;2.67;;
49221;SDS011;35047;37.588;-122.048;2022-12-18T03:21:47;4.78;;;1.95;;
49221;SDS011;35047;37.588;-122.048;2022-12-18T03:24:19;4.85;;;3.28;;
49221;SDS011;35047;37.588;-122.048;2022-12-18T03:26:49;5.07;;;2.03;;
49221;SDS011;35047;37.588;-122.048;2022-12-18T03:32:07;4.95;;;2.25;;
49221;SDS011;35047;37.588;-122.048;2022-12-18T03:34:57;5.55;;;3.08;;
49221;SDS011;35047;37.588;-122.048;2022-12-18T03:37:30;2.65;;;1.80;;
49221;SDS011;35047;37.588;-122.048;2022-12-18T03:39:57;4.15;;;2.40;;
49221;SDS011;35047;37.588;-122.048;2022-12-18T03:45:19;5.95;;;2.72;;
49221;SDS011;35047;37.588;-122.048;2022-12-18T03:53:24;3.65;;;2.40;;
49221;SDS011;35047;37.588;-122.048;2022-12-18T03:56:02;5.15;;;2.60;;
49221;SDS011;35047;37.588;-122.048;2022-12-18T03:58:31;3.63;;;2.40;;
49221;SDS011;35047;37.588;-122.048;2022-12-18T04:01:01;3.67;;;2.00;;
49221;SDS011;35047;37.588;-122.048;2022-12-18T04:03:33;3.00;;;2.28;;
49221;SDS011;35047;37.588;-122.048;2022-12-18T04:06:01;4.95;;;2.65;;
49221;SDS011;35047;37.588;-122.048;2022-12-18T04:08:29;3.35;;;1.67;;
49221;SDS011;35047;37.588;-122.048;2022-12-18T04:10:56;4.60;;;2.78;;
49221;SDS011;35047;37.588;-122.048;2022-12-18T04:13:23;4.18;;;2.05;;
49221;SDS011;35047;37.588;-122.048;2022-12-18T04:15:53;5.22;;;2.53;;
49221;SDS011;35047;37.588;-122.048;2022-12-18T04:18:21;4.15;;;2.78;;
49221;SDS011;35047;37.588;-122.048;2022-12-18T04:20:47;3.92;;;2.00;;
49221;SDS011;35047;37.588;-122.048;2022-12-18T04:23:15;6.03;;;2.25;;
49221;SDS011;35047;37.588;-122.048;2022-12-18T04:25:42;3.35;;;2.00;;
49221;SDS011;35047;37.588;-122.048;2022-12-18T04:28:09;3.63;;;2.10;;
49221;SDS011;35047;37.588;-122.048;2022-12-18T04:30:36;5.07;;;1.83;;
49221;SDS011;35047;37.588;-122.048;2022-12-18T04:33:03;3.28;;;2.17;;
49221;SDS011;35047;37.588;-122.048;2022-12-18T04:35:33;4.03;;;2.45;;
49221;SDS011;35047;37.588;-122.048;2022-12-18T04:38:01;5.05;;;2.38;;
49221;SDS011;35047;37.588;-122.048;2022-12-18T04:40:28;5.93;;;2.45;;
49221;SDS011;35047;37.588;-122.048;2022-12-18T04:42:55;4.70;;;3.30;;
49221;SDS011;35047;37.588;-122.048;2022-12-18T04:45:21;5.20;;;2.60;;
49221;SDS011;35047;37.588;-122.048;2022-12-18T04:47:48;8.45;;;2.90;;
49221;SDS011;35047;37.588;-122.048;2022-12-18T04:50:17;3.50;;;2.35;;
49221;SDS011;35047;37.588;-122.048;2022-12-18T04:52:43;6.45;;;3.40;;
49221;SDS011;35047;37.588;-122.048;2022-12-18T04:55:10;4.80;;;2.83;;
49221;SDS011;35047;37.588;-122.048;2022-12-18T04:57:37;5.38;;;3.15;;
49221;SDS011;35047;37.588;-122.048;2022-12-18T05:00:04;3.65;;;2.45;;
49221;SDS011;35047;37.588;-122.048;2022-12-18T05:02:32;4.18;;;3.20;;
49221;SDS011;35047;37.588;-122.048;2022-12-18T05:04:59;3.75;;;1.98;;
49221;SDS011;35047;37.588;-122.048;2022-12-18T05:09:53;4.20;;;2.28;;
49221;SDS011;35047;37.588;-122.048;2022-12-18T05:12:23;10.32;;;2.70;;
49221;SDS011;35047;37.588;-122.048;2022-12-18T05:14:50;3.72;;;2.58;;
49221;SDS011;35047;37.588;-122.048;2022-12-18T05:19:43;6.70;;;2.55;;
49221;SDS011;35047;37.588;-122.048;2022-12-18T05:22:11;8.38;;;3.13;;
49221;SDS011;35047;37.588;-122.048;2022-12-18T05:24:38;7.40;;;2.88;;
49221;SDS011;35047;37.588;-122.048;2022-12-18T05:27:05;3.80;;;2.95;;
49221;SDS011;35047;37.588;-122.048;2022-12-18T05:29:32;11.43;;;3.70;;
49221;SDS011;35047;37.588;-122.048;2022-12-18T05:31:59;6.35;;;2.97;;
49221;SDS011;35047;37.588;-122.048;2022-12-18T05:34:27;6.28;;;3.28;;
49221;SDS011;35047;37.588;-122.048;2022-12-18T05:39:20;6.07;;;3.30;;
49221;SDS011;35047;37.588;-122.048;2022-12-18T05:41:47;5.32;;;3.38;;
49221;SDS011;35047;37.588;-122.048;2022-12-18T05:44:14;5.70;;;3.67;;
49221;SDS011;35047;37.588;-122.048;2022-12-18T05:46:41;5.00;;;3.13;;
49221;SDS011;35047;37.588;-122.048;2022-12-18T05:49:07;4.50;;;3.08;;
49221;SDS011;35047;37.588;-122.048;2022-12-18T05:54:01;4.70;;;3.08;;
49221;SDS011;35047;37.588;-122.048;2022-12-18T05:56:28;4.20;;;2.42;;
49221;SDS011;35047;37.588;-122.048;2022-12-18T05:58:55;3.25;;;2.35;;
49221;SDS011;35047;37.588;-122.048;2022-12-18T06:01:23;6.40;;;3.15;;
49221;SDS011;35047;37.588;-122.048;2022-12-18T06:03:52;5.13;;;2.42;;
49221;SDS011;35047;37.588;-122.048;2022-12-18T06:06:20;4.23;;;2.83;;
49221;SDS011;35047;37.588;-122.048;2022-12-18T06:08:50;4.53;;;2.47;;
49221;SDS011;35047;37.588;-122.048;2022-12-18T06:11:22;5.45;;;2.78;;
49221;SDS011;35047;37.588;-122.048;2022-12-18T06:13:51;4.88;;;2.47;;
49221;SDS011;35047;37.588;-122.048;2022-12-18T06:16:20;4.97;;;3.10;;
49221;SDS011;35047;37.588;-122.048;2022-12-18T06:18:47;4.25;;;2.88;;
49221;SDS011;35047;37.588;-122.048;2022-12-18T06:21:14;5.13;;;2.95;;
49221;SDS011;35047;37.588;-122.048;2022-12-18T06:23:41;3.72;;;2.25;;
49221;SDS011;35047;37.588;-122.048;2022-12-18T06:26:09;5.07;;;2.95;;
49221;SDS011;35047;37.588;-122.048;2022-12-18T06:28:37;7.55;;;3.88;;
49221;SDS011;35047;37.588;-122.048;2022-12-18T06:31:04;4.80;;;2.35;;
49221;SDS011;35047;37.588;-122.048;2022-12-18T06:33:31;4.40;;;2.60;;
49221;SDS011;35047;37.588;-122.048;2022-12-18T06:36:00;5.80;;;3.20;;
49221;SDS011;35047;37.588;-122.048;2022-12-18T06:38:33;3.42;;;1.88;;
49221;SDS011;35047;37.588;-122.048;2022-12-18T06:41:00;3.67;;;2.40;;
49221;SDS011;35047;37.588;-122.048;2022-12-18T06:43:32;4.63;;;2.97;;
49221;SDS011;35047;37.588;-122.048;2022-12-18T06:45:59;5.82;;;3.30;;
49221;SDS011;35047;37.588;-122.048;2022-12-18T06:48:27;9.50;;;3.35;;
49221;SDS011;35047;37.588;-122.048;2022-12-18T06:50:53;5.55;;;3.00;;
49221;SDS011;35047;37.588;-122.048;2022-12-18T06:53:21;9.27;;;3.55;;
49221;SDS011;35047;37.588;-122.048;2022-12-18T06:55:49;4.47;;;3.10;;
49221;SDS011;35047;37.588;-122.048;2022-12-18T06:58:16;4.30;;;2.83;;
49221;SDS011;35047;37.588;-122.048;2022-12-18T07:00:43;4.68;;;2.70;;
49221;SDS011;35047;37.588;-122.048;2022-12-18T07:03:10;6.53;;;3.50;;
49221;SDS011;35047;37.588;-122.048;2022-12-18T07:05:40;5.97;;;3.63;;
49221;SDS011;35047;37.588;-122.048;2022-12-18T07:08:07;6.05;;;3.10;;
49221;SDS011;35047;37.588;-122.048;2022-12-18T07:10:40;5.75;;;4.00;;
49221;SDS011;35047;37.588;-122.048;2022-12-18T07:13:08;9.68;;;3.88;;
49221;SDS011;35047;37.588;-122.048;2022-12-18T07:15:34;5.90;;;3.85;;
49221;SDS011;35047;37.588;-122.048;2022-12-18T07:18:02;7.20;;;3.35;;
49221;SDS011;35047;37.588;-122.048;2022-12-18T07:20:28;6.45;;;3.22;;
49221;SDS011;35047;37.588;-122.048;2022-12-18T07:22:55;8.33;;;3.43;;
49221;SDS011;35047;37.588;-122.048;2022-12-18T07:25:22;7.43;;;3.95;;
49221;SDS011;35047;37.588;-122.048;2022-12-18T07:27:49;6.32;;;3.33;;
49221;SDS011;35047;37.588;-122.048;2022-12-18T07:30:16;7.20;;;3.85;;
49221;SDS011;35047;37.588;-122.048;2022-12-18T07:32:43;13.25;;;4.10;;
49221;SDS011;35047;37.588;-122.048;2022-12-18T07:35:09;4.88;;;3.22;;
49221;SDS011;35047;37.588;-122.048;2022-12-18T07:37:36;7.03;;;4.35;;
49221;SDS011;35047;37.588;-122.048;2022-12-18T07:40:02;10.05;;;4.47;;
49221;SDS011;35047;37.588;-122.048;2022-12-18T07:42:30;8.65;;;3.95;;
49221;SDS011;35047;37.588;-122.048;2022-12-18T07:45:00;8.93;;;3.83;;
49221;SDS011;35047;37.588;-122.048;2022-12-18T07:47:27;11.32;;;3.88;;
49221;SDS011;35047;37.588;-122.048;2022-12-18T07:49:54;14.80;;;4.07;;
49221;SDS011;35047;37.588;-122.048;2022-12-18T07:52:22;10.30;;;5.00;;
49221;SDS011;35047;37.588;-122.048;2022-12-18T07:54:49;10.40;;;4.93;;
49221;SDS011;35047;37.588;-122.048;2022-12-18T07:57:16;6.93;;;4.20;;
49221;SDS011;35047;37.588;-122.048;2022-12-18T08:02:10;8.05;;;3.53;;
49221;SDS011;35047;37.588;-122.048;2022-12-18T08:04:37;8.48;;;3.88;;
49221;SDS011;35047;37.588;-122.048;2022-12-18T08:07:04;6.57;;;3.75;;
49221;SDS011;35047;37.588;-122.048;2022-12-18T08:09:31;4.22;;;3.70;;
49221;SDS011;35047;37.588;-122.048;2022-12-18T08:11:58;6.05;;;3.78;;
49221;SDS011;35047;37.588;-122.048;2022-12-18T08:14:26;8.77;;;5.00;;
49221;SDS011;35047;37.588;-122.048;2022-12-18T08:16:52;6.60;;;3.42;;
49221;SDS011;35047;37.588;-122.048;2022-12-18T08:19:20;7.25;;;4.22;;
49221;SDS011;35047;37.588;-122.048;2022-12-18T08:21:46;4.22;;;2.90;;
49221;SDS011;35047;37.588;-122.048;2022-12-18T08:24:13;6.97;;;4.43;;
49221;SDS011;35047;37.588;-122.048;2022-12-18T08:26:41;5.80;;;3.67;;
49221;SDS011;35047;37.588;-122.048;2022-12-18T08:29:08;7.18;;;3.90;;
49221;SDS011;35047;37.588;-122.048;2022-12-18T08:31:36;6.32;;;3.55;;
49221;SDS011;35047;37.588;-122.048;2022-12-18T08:34:02;7.85;;;3.10;;
49221;SDS011;35047;37.588;-122.048;2022-12-18T08:36:30;5.75;;;3.30;;
49221;SDS011;35047;37.588;-122.048;2022-12-18T08:38:56;6.13;;;3.17;;
49221;SDS011;35047;37.588;-122.048;2022-12-18T08:41:23;4.85;;;2.92;;
49221;SDS011;35047;37.588;-122.048;2022-12-18T08:43:51;7.90;;;2.47;;
49221;SDS011;35047;37.588;-122.048;2022-12-18T08:46:37;8.95;;;3.85;;
49221;SDS011;35047;37.588;-122.048;2022-12-18T08:49:05;6.57;;;3.22;;
49221;SDS011;35047;37.588;-122.048;2022-12-18T08:51:33;5.05;;;3.13;;
49221;SDS011;35047;37.588;-122.048;2022-12-18T08:54:01;6.60;;;3.38;;
49221;SDS011;35047;37.588;-122.048;2022-12-18T08:56:28;4.35;;;2.42;;
49221;SDS011;35047;37.588;-122.048;2022-12-18T09:01:22;2.88;;;1.90;;
49221;SDS011;35047;37.588;-122.048;2022-12-18T09:03:50;3.63;;;2.53;;
49221;SDS011;35047;37.588;-122.048;2022-12-18T09:06:17;4.38;;;2.55;;
49221;SDS011;35047;37.588;-122.048;2022-12-18T09:08:46;6.15;;;3.40;;
49221;SDS011;35047;37.588;-122.048;2022-12-18T09:11:13;3.08;;;2.20;;
49221;SDS011;35047;37.588;-122.048;2022-12-18T09:13:45;3.85;;;2.17;;
49221;SDS011;35047;37.588;-122.048;2022-12-18T09:16:11;4.63;;;2.28;;
49221;SDS011;35047;37.588;-122.048;2022-12-18T09:18:38;5.88;;;2.45;;
49221;SDS011;35047;37.588;-122.048;2022-12-18T09:21:09;5.00;;;2.60;;
49221;SDS011;35047;37.588;-122.048;2022-12-18T09:23:41;5.63;;;2.85;;
49221;SDS011;35047;37.588;-122.048;2022-12-18T09:26:08;8.60;;;3.03;;
49221;SDS011;35047;37.588;-122.048;2022-12-18T09:28:35;3.87;;;2.53;;
49221;SDS011;35047;37.588;-122.048;2022-12-18T09:31:03;3.55;;;2.53;;
49221;SDS011;35047;37.588;-122.048;2022-12-18T09:33:33;5.50;;;2.95;;
49221;SDS011;35047;37.588;-122.048;2022-12-18T09:36:03;3.78;;;2.50;;
49221;SDS011;35047;37.588;-122.048;2022-12-18T09:38:31;5.28;;;2.55;;
49221;SDS011;35047;37.588;-122.048;2022-12-18T09:41:06;5.30;;;2.72;;
49221;SDS011;35047;37.588;-122.048;2022-12-18T09:43:53;4.18;;;3.00;;
49221;SDS011;35047;37.588;-122.048;2022-12-18T09:46:27;8.10;;;2.10;;
49221;SDS011;35047;37.588;-122.048;2022-12-18T09:49:05;3.42;;;2.10;;
49221;SDS011;35047;37.588;-122.048;2022-12-18T09:51:39;5.35;;;2.92;;
49221;SDS011;35047;37.588;-122.048;2022-12-18T09:54:20;3.85;;;2.40;;
49221;SDS011;35047;37.588;-122.048;2022-12-18T09:57:15;4.30;;;2.75;;
49221;SDS011;35047;37.588;-122.048;2022-12-18T09:59:47;11.02;;;3.25;;
49221;SDS011;35047;37.588;-122.048;2022-12-18T10:02:21;6.32;;;2.45;;
49221;SDS011;35047;37.588;-122.048;2022-12-18T10:05:05;5.28;;;2.45;;
49221;SDS011;35047;37.588;-122.048;2022-12-18T10:07:40;6.78;;;3.08;;
49221;SDS011;35047;37.588;-122.048;2022-12-18T10:12:44;4.28;;;2.45;;
49221;SDS011;35047;37.588;-122.048;2022-12-18T10:16:14;3.60;;;2.20;;
49221;SDS011;35047;37.588;-122.048;2022-12-18T10:18:50;2.75;;;2.15;;
49221;SDS011;35047;37.588;-122.048;2022-12-18T10:21:24;6.30;;;2.65;;
49221;SDS011;35047;37.588;-122.048;2022-12-18T10:24:50;9.65;;;2.85;;
49221;SDS011;35047;37.588;-122.048;2022-12-18T10:27:23;4.05;;;2.80;;
49221;SDS011;35047;37.588;-122.048;2022-12-18T10:29:53;5.63;;;2.85;;
49221;SDS011;35047;37.588;-122.048;2022-12-18T10:32:22;3.78;;;2.47;;
49221;SDS011;35047;37.588;-122.048;2022-12-18T10:34:50;4.97;;;2.60;;
49221;SDS011;35047;37.588;-122.048;2022-12-18T10:37:20;8.63;;;3.10;;
49221;SDS011;35047;37.588;-122.048;2022-12-18T10:40:32;4.78;;;2.17;;
49221;SDS011;35047;37.588;-122.048;2022-12-18T10:42:42;6.40;;;2.20;;
49221;SDS011;35047;37.588;-122.048;2022-12-18T10:45:11;9.70;;;2.13;;
49221;SDS011;35047;37.588;-122.048;2022-12-18T10:47:43;5.70;;;3.00;;
49221;SDS011;35047;37.588;-122.048;2022-12-18T10:50:27;16.33;;;3.10;;
49221;SDS011;35047;37.588;-122.048;2022-12-18T10:53:00;4.00;;;1.90;;
49221;SDS011;35047;37.588;-122.048;2022-12-18T10:55:37;6.20;;;2.67;;
49221;SDS011;35047;37.588;-122.048;2022-12-18T11:01:13;3.15;;;2.00;;
49221;SDS011;35047;37.588;-122.048;2022-12-18T11:11:31;2.47;;;1.88;;
49221;SDS011;35047;37.588;-122.048;2022-12-18T11:14:00;3.80;;;2.58;;
49221;SDS011;35047;37.588;-122.048;2022-12-18T11:16:33;2.95;;;2.08;;
49221;SDS011;35047;37.588;-122.048;2022-12-18T11:19:31;7.57;;;2.53;;
49221;SDS011;35047;37.588;-122.048;2022-12-18T11:22:01;2.17;;;1.77;;
49221;SDS011;35047;37.588;-122.048;2022-12-18T11:24:59;4.57;;;2.13;;
49221;SDS011;35047;37.588;-122.048;2022-12-18T11:27:27;5.25;;;2.25;;
49221;SDS011;35047;37.588;-122.048;2022-12-18T11:30:20;3.75;;;2.53;;
49221;SDS011;35047;37.588;-122.048;2022-12-18T11:32:49;1.88;;;1.67;;
49221;SDS011;35047;37.588;-122.048;2022-12-18T11:44:01;5.40;;;2.28;;
49221;SDS011;35047;37.588;-122.048;2022-12-18T11:46:38;3.45;;;1.48;;
49221;SDS011;35047;37.588;-122.048;2022-12-18T11:49:12;3.78;;;1.83;;
49221;SDS011;35047;37.588;-122.048;2022-12-18T11:51:50;3.67;;;2.37;;
49221;SDS011;35047;37.588;-122.048;2022-12-18T11:54:25;4.07;;;1.75;;
49221;SDS011;35047;37.588;-122.048;2022-12-18T11:56:55;2.63;;;1.83;;
49221;SDS011;35047;37.588;-122.048;2022-12-18T12:02:43;3.10;;;1.88;;
49221;SDS011;35047;37.588;-122.048;2022-12-18T12:16:03;6.43;;;2.45;;
49221;SDS011;35047;37.588;-122.048;2022-12-18T12:26:30;4.13;;;1.90;;
49221;SDS011;35047;37.588;-122.048;2022-12-18T12:34:42;7.63;;;2.70;;
49221;SDS011;35047;37.588;-122.048;2022-12-18T12:37:53;3.22;;;2.40;;
49221;SDS011;35047;37.588;-122.048;2022-12-18T12:40:34;3.38;;;2.22;;
49221;SDS011;35047;37.588;-122.048;2022-12-18T12:43:19;6.38;;;2.22;;
49221;SDS011;35047;37.588;-122.048;2022-12-18T12:46:01;1.60;;;1.50;;
49221;SDS011;35047;37.588;-122.048;2022-12-18T12:48:34;5.55;;;1.95;;
49221;SDS011;35047;37.588;-122.048;2022-12-18T12:51:02;5.25;;;1.95;;
49221;SDS011;35047;37.588;-122.048;2022-12-18T12:53:53;4.30;;;1.42;;
49221;SDS011;35047;37.588;-122.048;2022-12-18T12:56:22;2.15;;;1.92;;
49221;SDS011;35047;37.588;-122.048;2022-12-18T13:04:06;2.22;;;1.48;;
49221;SDS011;35047;37.588;-122.048;2022-12-18T13:09:31;4.15;;;1.98;;
49221;SDS011;35047;37.588;-122.048;2022-12-18T13:12:03;6.40;;;2.50;;
49221;SDS011;35047;37.588;-122.048;2022-12-18T13:14:54;3.97;;;2.15;;
49221;SDS011;35047;37.588;-122.048;2022-12-18T13:17:39;4.80;;;1.83;;
49221;SDS011;35047;37.588;-122.048;2022-12-18T13:20:09;3.42;;;2.25;;
49221;SDS011;35047;37.588;-122.048;2022-12-18T13:22:43;2.03;;;1.65;;
49221;SDS011;35047;37.588;-122.048;2022-12-18T13:28:03;4.95;;;2.35;;
49221;SDS011;35047;37.588;-122.048;2022-12-18T13:38:22;2.80;;;1.70;;
49221;SDS011;35047;37.588;-122.048;2022-12-18T13:43:43;3.00;;;1.70;;
49221;SDS011;35047;37.588;-122.048;2022-12-18T13:51:27;2.67;;;1.42;;
49221;SDS011;35047;37.588;-122.048;2022-12-18T13:56:29;3.65;;;2.08;;
49221;SDS011;35047;37.588;-122.048;2022-12-18T14:01:55;7.30;;;2.35;;
49221;SDS011;35047;37.588;-122.048;2022-12-18T14:07:13;3.15;;;1.63;;
49221;SDS011;35047;37.588;-122.048;2022-12-18T14:09:43;2.95;;;2.03;;
49221;SDS011;35047;37.588;-122.048;2022-12-18T14:12:33;2.28;;;1.65;;
49221;SDS011;35047;37.588;-122.048;2022-12-18T14:15:31;3.78;;;1.95;;
49221;SDS011;35047;37.588;-122.048;2022-12-18T14:20:45;3.92;;;1.98;;
49221;SDS011;35047;37.588;-122.048;2022-12-18T14:23:29;6.90;;;1.55;;
49221;SDS011;35047;37.588;-122.048;2022-12-18T14:25:59;4.50;;;1.40;;
49221;SDS011;35047;37.588;-122.048;2022-12-18T14:28:26;6.03;;;1.77;;
49221;SDS011;35047;37.588;-122.048;2022-12-18T14:30:54;3.80;;;1.85;;
49221;SDS011;35047;37.588;-122.048;2022-12-18T14:33:25;3.90;;;2.38;;
49221;SDS011;35047;37.588;-122.048;2022-12-18T14:38:31;2.55;;;1.95;;
49221;SDS011;35047;37.588;-122.048;2022-12-18T14:41:04;6.88;;;2.20;;
49221;SDS011;35047;37.588;-122.048;2022-12-18T14:43:40;1.85;;;1.45;;
49221;SDS011;35047;37.588;-122.048;2022-12-18T14:49:21;5.38;;;1.92;;
49221;SDS011;35047;37.588;-122.048;2022-12-18T14:51:56;2.97;;;1.83;;
49221;SDS011;35047;37.588;-122.048;2022-12-18T14:54:27;2.58;;;1.63;;
49221;SDS011;35047;37.588;-122.048;2022-12-18T14:57:05;3.42;;;1.95;;
49221;SDS011;35047;37.588;-122.048;2022-12-18T14:59:53;3.30;;;1.58;;
49221;SDS011;35047;37.588;-122.048;2022-12-18T15:02:29;2.65;;;1.60;;
49221;SDS011;35047;37.588;-122.048;2022-12-18T15:05:00;3.80;;;1.63;;
49221;SDS011;35047;37.588;-122.048;2022-12-18T15:07:39;2.88;;;1.27;;
49221;SDS011;35047;37.588;-122.048;2022-12-18T15:10:15;2.63;;;1.67;;
49221;SDS011;35047;37.588;-122.048;2022-12-18T15:13:06;4.20;;;2.10;;
49221;SDS011;35047;37.588;-122.048;2022-12-18T15:20:45;2.55;;;1.77;;
49221;SDS011;35047;37.588;-122.048;2022-12-18T15:26:11;3.80;;;2.55;;
49221;SDS011;35047;37.588;-122.048;2022-12-18T15:28:49;4.50;;;2.70;;
49221;SDS011;35047;37.588;-122.048;2022-12-18T15:36:20;3.65;;;2.22;;
49221;SDS011;35047;37.588;-122.048;2022-12-18T15:38:49;11.98;;;2.33;;
49221;SDS011;35047;37.588;-122.048;2022-12-18T15:41:18;3.35;;;1.88;;
49221;SDS011;35047;37.588;-122.048;2022-12-18T15:43:50;5.32;;;2.35;;
49221;SDS011;35047;37.588;-122.048;2022-12-18T15:46:22;4.32;;;1.80;;
49221;SDS011;35047;37.588;-122.048;2022-12-18T15:48:55;2.95;;;2.50;;
49221;SDS011;35047;37.588;-122.048;2022-12-18T15:51:32;3.35;;;2.47;;
49221;SDS011;35047;37.588;-122.048;2022-12-18T15:54:02;3.38;;;2.28;;
49221;SDS011;35047;37.588;-122.048;2022-12-18T15:56:32;8.48;;;2.67;;
49221;SDS011;35047;37.588;-122.048;2022-12-18T15:59:17;4.72;;;2.75;;
49221;SDS011;35047;37.588;-122.048;2022-12-18T16:01:46;4.65;;;2.53;;
49221;SDS011;35047;37.588;-122.048;2022-12-18T16:04:16;4.95;;;1.92;;
49221;SDS011;35047;37.588;-122.048;2022-12-18T16:06:47;8.07;;;2.83;;
49221;SDS011;35047;37.588;-122.048;2022-12-18T16:11:41;2.90;;;2.00;;
49221;SDS011;35047;37.588;-122.048;2022-12-18T16:14:22;9.63;;;1.98;;
49221;SDS011;35047;37.588;-122.048;2022-12-18T16:16:54;6.20;;;2.80;;
49221;SDS011;35047;37.588;-122.048;2022-12-18T16:19:24;8.13;;;2.45;;
49221;SDS011;35047;37.588;-122.048;2022-12-18T16:21:51;4.05;;;2.22;;
49221;SDS011;35047;37.588;-122.048;2022-12-18T16:24:21;2.22;;;1.65;;
49221;SDS011;35047;37.588;-122.048;2022-12-18T16:26:53;2.83;;;1.80;;
49221;SDS011;35047;37.588;-122.048;2022-12-18T16:29:22;7.40;;;2.22;;
49221;SDS011;35047;37.588;-122.048;2022-12-18T16:31:52;3.95;;;2.50;;
49221;SDS011;35047;37.588;-122.048;2022-12-18T16:36:56;4.50;;;2.35;;
49221;SDS011;35047;37.588;-122.048;2022-12-18T16:39:24;2.72;;;1.83;;
49221;SDS011;35047;37.588;-122.048;2022-12-18T16:41:52;2.35;;;1.70;;
49221;SDS011;35047;37.588;-122.048;2022-12-18T16:46:46;4.68;;;2.47;;
49221;SDS011;35047;37.588;-122.048;2022-12-18T16:51:42;9.98;;;3.20;;
49221;SDS011;35047;37.588;-122.048;2022-12-18T16:54:09;4.90;;;2.55;;
49221;SDS011;35047;37.588;-122.048;2022-12-18T16:56:35;5.53;;;1.75;;
49221;SDS011;35047;37.588;-122.048;2022-12-18T16:59:03;7.18;;;3.00;;
49221;SDS011;35047;37.588;-122.048;2022-12-18T17:01:30;4.75;;;2.50;;
49221;SDS011;35047;37.588;-122.048;2022-12-18T17:03:58;7.10;;;3.15;;
49221;SDS011;35047;37.588;-122.048;2022-12-18T17:06:28;7.75;;;2.53;;
49221;SDS011;35047;37.588;-122.048;2022-12-18T17:08:56;5.00;;;2.42;;
49221;SDS011;35047;37.588;-122.048;2022-12-18T17:11:25;4.35;;;2.85;;
49221;SDS011;35047;37.588;-122.048;2022-12-18T17:13:54;3.22;;;2.05;;
49221;SDS011;35047;37.588;-122.048;2022-12-18T17:16:20;6.45;;;3.40;;
49221;SDS011;35047;37.588;-122.048;2022-12-18T17:18:49;2.38;;;2.15;;
49221;SDS011;35047;37.588;-122.048;2022-12-18T17:21:18;3.65;;;2.50;;
49221;SDS011;35047;37.588;-122.048;2022-12-18T17:23:44;4.53;;;1.95;;
49221;SDS011;35047;37.588;-122.048;2022-12-18T17:26:12;3.45;;;2.25;;
49221;SDS011;35047;37.588;-122.048;2022-12-18T17:28:40;5.28;;;2.22;;
49221;SDS011;35047;37.588;-122.048;2022-12-18T17:31:11;3.08;;;2.03;;